createdAt,value
2023-10-30T00:00:15.037Z,19.56
2023-10-30T00:02:43.027Z,20.16
2023-10-30T00:05:12.597Z,19.89
2023-10-30T00:07:41.038Z,20.31
2023-10-30T00:10:09.523Z,19.92
2023-10-30T00:12:57.034Z,20.53
2023-10-30T00:15:27.244Z,19.60
2023-10-30T00:17:55.082Z,21.04
2023-10-30T00:20:22.815Z,19.27
2023-10-30T00:22:51.024Z,20.03
2023-10-30T00:25:19.376Z,21.47
2023-10-30T00:27:48.045Z,18.64
2023-10-30T00:30:17.298Z,19.99
2023-10-30T00:32:45.091Z,21.32
2023-10-30T00:35:13.173Z,19.96
2023-10-30T00:37:41.042Z,19.42
2023-10-30T00:40:09.938Z,21.31
2023-10-30T00:42:37.845Z,19.20
2023-10-30T00:45:07.385Z,19.82
2023-10-30T00:47:39.670Z,19.26
2023-10-30T00:50:09.115Z,18.76
2023-10-30T00:52:36.794Z,20.20
2023-10-30T00:55:05.086Z,20.34
2023-10-30T00:57:32.836Z,19.03
2023-10-30T01:00:00.823Z,20.10
2023-10-30T01:02:29.283Z,19.79
2023-10-30T01:04:59.253Z,19.74
2023-10-30T01:07:28.088Z,19.66
2023-10-30T01:09:55.872Z,19.94
2023-10-30T01:12:23.651Z,19.70
2023-10-30T01:14:52.105Z,20.67
2023-10-30T01:17:20.065Z,21.05
2023-10-30T01:19:48.280Z,20.89
2023-10-30T01:22:17.699Z,19.64
2023-10-30T01:24:46.080Z,19.58
2023-10-30T01:27:13.785Z,20.01
2023-10-30T01:29:42.236Z,19.96
2023-10-30T01:32:09.941Z,21.19
2023-10-30T01:34:38.124Z,20.36
2023-10-30T01:37:05.934Z,19.99
2023-10-30T01:39:35.206Z,21.80
2023-10-30T01:42:03.402Z,20.04
2023-10-30T01:44:31.316Z,18.52
2023-10-30T01:47:00.152Z,20.25
2023-10-30T01:49:27.902Z,19.45
2023-10-30T01:51:55.699Z,19.87
2023-10-30T01:54:24.192Z,19.31
2023-10-30T01:56:53.325Z,20.09
2023-10-30T01:59:21.192Z,19.91
2023-10-30T02:01:48.884Z,19.50
2023-10-30T02:04:18.191Z,19.59
2023-10-30T02:06:45.989Z,19.40
2023-10-30T02:09:14.303Z,18.91
2023-10-30T02:11:42.066Z,20.83
2023-10-30T02:14:11.171Z,20.67
2023-10-30T02:16:39.247Z,19.82
2023-10-30T02:19:10.191Z,20.53
2023-10-30T02:21:38.061Z,20.50
2023-10-30T02:24:08.240Z,20.62
2023-10-30T02:26:37.332Z,20.22
2023-10-30T02:29:07.183Z,20.26
2023-10-30T02:31:35.104Z,21.11
2023-10-30T02:34:03.250Z,20.33
2023-10-30T02:36:31.321Z,20.48
2023-10-30T02:38:59.201Z,20.40
2023-10-30T02:41:30.268Z,19.69
2023-10-30T02:43:59.475Z,20.32
2023-10-30T02:46:28.552Z,18.95
2023-10-30T02:48:56.620Z,20.31
2023-10-30T02:51:25.266Z,20.60
2023-10-30T02:53:53.172Z,19.78
2023-10-30T02:56:20.974Z,20.71
2023-10-30T02:58:48.845Z,20.73
2023-10-30T03:01:18.230Z,20.50
2023-10-30T03:03:46.163Z,20.94
2023-10-30T03:06:14.278Z,20.42
2023-10-30T03:08:56.970Z,20.61
2023-10-30T03:11:25.394Z,19.99
2023-10-30T03:13:53.048Z,18.85
2023-10-30T03:16:22.326Z,20.42
2023-10-30T03:18:50.073Z,20.12
2023-10-30T03:21:18.330Z,19.42
2023-10-30T03:23:46.091Z,19.72
2023-10-30T03:26:14.268Z,20.47
2023-10-30T03:28:42.232Z,19.87
2023-10-30T03:31:11.292Z,20.38
2023-10-30T03:33:40.468Z,19.88
2023-10-30T03:36:08.555Z,19.41
2023-10-30T03:38:37.280Z,19.23
2023-10-30T03:41:05.404Z,19.03
2023-10-30T03:43:34.290Z,19.48
2023-10-30T03:46:02.087Z,18.42
2023-10-30T03:48:30.626Z,19.85
2023-10-30T03:51:00.680Z,19.93
2023-10-30T03:53:29.292Z,19.43
2023-10-30T03:55:57.826Z,20.58
2023-10-30T03:58:27.309Z,18.42
2023-10-30T04:00:54.963Z,19.66
2023-10-30T04:03:23.387Z,18.87
2023-10-30T04:05:51.133Z,19.33
2023-10-30T04:08:20.566Z,19.61
2023-10-30T04:10:48.807Z,20.17
2023-10-30T04:13:17.590Z,19.22
2023-10-30T04:15:45.326Z,20.23
2023-10-30T04:18:13.435Z,20.61
2023-10-30T04:20:41.169Z,19.56
2023-10-30T04:23:09.342Z,20.22
2023-10-30T04:25:38.578Z,19.46
2023-10-30T04:28:06.493Z,20.53
2023-10-30T04:31:00.631Z,20.09
2023-10-30T04:33:28.713Z,19.15
2023-10-30T04:35:56.449Z,19.06
2023-10-30T04:38:26.358Z,18.97
2023-10-30T04:40:55.449Z,20.55
2023-10-30T04:43:23.123Z,19.63
2023-10-30T04:45:51.393Z,19.94
2023-10-30T04:48:19.453Z,20.12
2023-10-30T04:50:47.372Z,20.45
2023-10-30T04:53:15.042Z,18.81
2023-10-30T04:55:42.780Z,20.12
2023-10-30T04:58:12.406Z,21.24
2023-10-30T05:00:40.415Z,19.71
2023-10-30T05:03:09.401Z,21.04
2023-10-30T05:05:37.472Z,19.03
2023-10-30T05:08:06.042Z,20.54
2023-10-30T05:10:33.869Z,20.18
2023-10-30T05:13:02.387Z,19.77
2023-10-30T05:15:31.524Z,20.52
2023-10-30T05:17:59.433Z,20.81
2023-10-30T05:20:27.341Z,19.97
2023-10-30T05:22:55.422Z,20.30
2023-10-30T05:25:35.796Z,19.04
2023-10-30T05:28:10.638Z,19.96
2023-10-30T05:30:42.403Z,21.09
2023-10-30T05:33:10.486Z,19.53
2023-10-30T05:35:38.240Z,20.63
2023-10-30T05:38:07.420Z,18.50
2023-10-30T05:40:35.433Z,20.29
2023-10-30T05:43:03.428Z,19.56
2023-10-30T05:45:31.187Z,18.72
2023-10-30T05:48:00.335Z,20.40
2023-10-30T05:50:28.433Z,20.55
2023-10-30T05:52:56.395Z,20.05
2023-10-30T05:55:24.453Z,20.97
2023-10-30T05:57:52.992Z,18.88
2023-10-30T06:00:21.482Z,20.15
2023-10-30T06:02:49.805Z,20.04
2023-10-30T06:05:19.783Z,19.82
2023-10-30T06:07:48.473Z,21.23
2023-10-30T06:10:20.745Z,20.34
2023-10-30T06:12:48.787Z,20.28
2023-10-30T06:15:17.499Z,20.13
2023-10-30T06:17:45.489Z,20.80
2023-10-30T06:20:14.512Z,19.32
2023-10-30T06:22:43.669Z,20.38
2023-10-30T06:25:15.741Z,18.52
2023-10-30T06:27:43.694Z,18.66
2023-10-30T06:30:14.553Z,19.13
2023-10-30T06:32:42.473Z,19.58
2023-10-30T06:35:11.535Z,19.29
2023-10-30T06:37:39.304Z,19.65
2023-10-30T06:40:09.526Z,20.84
2023-10-30T06:42:37.572Z,20.35
2023-10-30T06:45:06.543Z,19.88
2023-10-30T06:47:35.039Z,19.92
2023-10-30T06:50:03.522Z,19.31
2023-10-30T06:52:31.491Z,20.24
2023-10-30T06:54:59.477Z,20.29
2023-10-30T06:57:29.645Z,18.21
2023-10-30T06:59:58.329Z,18.58
2023-10-30T07:02:26.580Z,18.49
2023-10-30T07:04:54.392Z,19.03
2023-10-30T07:07:22.540Z,19.62
2023-10-30T07:09:51.670Z,18.38
2023-10-30T07:12:19.424Z,19.12
2023-10-30T07:15:12.561Z,19.59
2023-10-30T07:17:41.339Z,19.86
2023-10-30T07:20:10.559Z,18.66
2023-10-30T07:22:38.401Z,19.72
2023-10-30T07:25:07.519Z,20.46
2023-10-30T07:27:35.992Z,19.16
2023-10-30T07:30:05.855Z,19.44
2023-10-30T07:32:33.833Z,19.01
2023-10-30T07:37:47.756Z,18.73
2023-10-30T07:40:15.553Z,20.52
2023-10-30T07:42:43.423Z,18.65
2023-10-30T07:45:14.615Z,20.53
2023-10-30T07:47:44.549Z,20.29
2023-10-30T07:50:20.606Z,20.04
2023-10-30T07:52:48.435Z,19.34
2023-10-30T07:55:16.573Z,18.93
2023-10-30T07:57:44.367Z,21.02
2023-10-30T08:00:15.213Z,19.60
2023-10-30T08:02:43.911Z,19.52
2023-10-30T08:08:05.624Z,19.34
2023-10-30T08:10:33.456Z,19.17
2023-10-30T08:13:01.355Z,20.38
2023-10-30T08:15:30.690Z,19.46
2023-10-30T08:17:58.489Z,21.05
2023-10-30T08:23:10.638Z,20.74
2023-10-30T08:25:40.240Z,20.82
2023-10-30T08:28:10.053Z,20.29
2023-10-30T08:33:10.205Z,20.90
2023-10-30T08:35:39.679Z,20.93
2023-10-30T08:38:08.192Z,21.09
2023-10-30T08:40:35.868Z,20.91
2023-10-30T08:43:03.668Z,20.92
2023-10-30T08:45:31.407Z,20.89
2023-10-30T08:48:15.711Z,21.07
2023-10-30T08:50:45.698Z,21.22
2023-10-30T08:53:13.734Z,21.39
2023-10-30T08:55:42.636Z,22.30
2023-10-30T08:58:10.704Z,21.30
2023-10-30T09:00:38.682Z,21.78
2023-10-30T09:03:08.984Z,21.83
2023-10-30T09:05:36.866Z,22.03
2023-10-30T09:08:05.717Z,21.00
2023-10-30T09:10:35.439Z,21.26
2023-10-30T09:13:03.706Z,23.26
2023-10-30T09:15:31.490Z,22.54
2023-10-30T09:17:59.755Z,21.76
2023-10-30T09:20:28.854Z,23.04
2023-10-30T09:22:56.794Z,23.04
2023-10-30T09:25:24.774Z,22.56
2023-10-30T09:27:53.854Z,23.47
2023-10-30T09:30:22.802Z,22.62
2023-10-30T09:32:51.289Z,21.77
2023-10-30T09:35:19.898Z,23.65
2023-10-30T09:37:48.980Z,22.55
2023-10-30T09:40:17.736Z,23.97
2023-10-30T09:42:53.809Z,22.92
2023-10-30T09:45:23.890Z,22.24
2023-10-30T09:47:54.538Z,21.28
2023-10-30T09:50:23.753Z,22.66
2023-10-30T09:52:54.225Z,25.09
2023-10-30T09:55:24.005Z,22.95
2023-10-30T09:57:54.253Z,24.49
2023-10-30T10:00:22.585Z,23.01
2023-10-30T10:02:50.985Z,24.09
2023-10-30T10:05:19.758Z,23.20
2023-10-30T10:07:47.806Z,24.30
2023-10-30T10:10:19.735Z,23.78
2023-10-30T10:12:52.047Z,26.01
2023-10-30T10:15:21.748Z,25.01
2023-10-30T10:17:51.811Z,24.79
2023-10-30T10:20:23.275Z,23.48
2023-10-30T10:22:51.806Z,23.18
2023-10-30T10:25:21.617Z,23.30
2023-10-30T10:27:53.136Z,24.16
2023-10-30T10:30:25.017Z,23.18
2023-10-30T10:32:59.900Z,23.88
2023-10-30T10:35:27.926Z,23.61
2023-10-30T10:38:10.945Z,24.95
2023-10-30T10:40:40.844Z,26.15
2023-10-30T10:43:10.112Z,22.80
2023-10-30T10:45:38.346Z,22.56
2023-10-30T10:48:07.840Z,26.23
2023-10-30T10:50:36.445Z,24.48
2023-10-30T10:53:06.021Z,22.16
2023-10-30T10:55:37.250Z,23.76
2023-10-30T10:58:12.110Z,25.47
2023-10-30T11:00:43.921Z,24.36
2023-10-30T11:03:12.171Z,26.56
2023-10-30T11:05:40.904Z,24.43
2023-10-30T11:08:18.400Z,24.42
2023-10-30T11:10:51.015Z,26.24
2023-10-30T11:13:27.772Z,27.34
2023-10-30T11:15:59.973Z,27.35
2023-10-30T11:18:29.223Z,25.72
2023-10-30T11:21:11.006Z,24.32
2023-10-30T11:23:49.883Z,27.24
2023-10-30T11:26:39.131Z,23.88
2023-10-30T11:29:11.122Z,25.31
2023-10-30T11:31:55.852Z,25.49
2023-10-30T11:34:32.979Z,26.54
2023-10-30T11:37:03.101Z,27.05
2023-10-30T11:39:34.936Z,27.55
2023-10-30T11:42:03.200Z,24.96
2023-10-30T11:44:32.697Z,25.03
2023-10-30T11:47:00.939Z,26.38
2023-10-30T11:49:32.075Z,25.74
2023-10-30T11:52:00.158Z,26.56
2023-10-30T11:54:35.198Z,24.51
2023-10-30T11:57:03.332Z,26.68
2023-10-30T11:59:32.924Z,28.15
2023-10-30T12:02:02.378Z,27.53
2023-10-30T12:04:33.586Z,25.51
2023-10-30T12:07:01.481Z,27.23
2023-10-30T12:09:29.967Z,27.96
2023-10-30T12:11:57.860Z,28.47
2023-10-30T12:14:25.647Z,28.33
2023-10-30T12:16:54.989Z,27.62
2023-10-30T12:19:23.687Z,27.86
2023-10-30T12:21:52.015Z,27.40
2023-10-30T12:24:20.245Z,26.41
2023-10-30T12:26:49.703Z,27.46
2023-10-30T12:29:23.690Z,26.77
2023-10-30T12:32:05.724Z,26.77
2023-10-30T12:34:36.943Z,26.80
2023-10-30T12:37:18.982Z,26.85
2023-10-30T12:40:01.312Z,27.63
2023-10-30T12:42:31.302Z,29.13
2023-10-30T12:44:59.033Z,27.55
2023-10-30T12:47:29.038Z,26.15
2023-10-30T12:49:56.694Z,26.05
2023-10-30T12:52:24.916Z,26.39
2023-10-30T12:54:53.050Z,28.04
2023-10-30T12:57:20.984Z,26.85
2023-10-30T12:59:49.019Z,26.63
2023-10-30T13:02:16.781Z,28.29
2023-10-30T13:04:47.323Z,28.31
2023-10-30T13:07:16.687Z,28.82
2023-10-30T13:09:45.074Z,27.65
2023-10-30T13:12:13.064Z,28.79
2023-10-30T13:14:41.695Z,27.50
2023-10-30T13:17:09.373Z,27.70
2023-10-30T13:19:38.037Z,25.65
2023-10-30T13:22:07.661Z,27.09
2023-10-30T13:24:35.680Z,27.17
2023-10-30T13:27:04.040Z,25.44
2023-10-30T13:29:33.040Z,26.79
2023-10-30T13:32:01.070Z,25.67
2023-10-30T13:34:28.983Z,25.66
2023-10-30T13:36:57.093Z,26.67
2023-10-30T13:39:26.313Z,27.35
2023-10-30T13:41:53.999Z,25.63
2023-10-30T13:44:22.358Z,27.04
2023-10-30T13:47:07.311Z,28.18
2023-10-30T13:53:04.194Z,29.78
2023-10-30T13:55:33.400Z,29.18
2023-10-30T13:58:01.406Z,27.50
2023-10-30T14:00:32.229Z,26.65
2023-10-30T14:03:00.177Z,28.46
2023-10-30T14:05:30.097Z,26.67
2023-10-30T14:10:35.350Z,28.16
2023-10-30T14:13:03.486Z,28.77
2023-10-30T14:15:32.304Z,26.11
2023-10-30T14:18:00.026Z,25.93
2023-10-30T14:20:28.137Z,26.04
2023-10-30T14:25:32.130Z,28.73
2023-10-30T14:28:01.229Z,27.03
2023-10-30T14:30:30.172Z,27.02
2023-10-30T14:32:57.881Z,27.40
2023-10-30T14:35:25.604Z,26.84
2023-10-30T14:37:54.171Z,28.25
2023-10-30T14:40:22.012Z,27.94
2023-10-30T14:42:50.196Z,27.33
2023-10-30T14:45:20.786Z,26.81
2023-10-30T14:47:48.695Z,27.83
2023-10-30T14:50:17.477Z,26.79
2023-10-30T14:52:45.145Z,26.80
2023-10-30T14:55:13.356Z,26.29
2023-10-30T14:57:41.133Z,25.88
2023-10-30T15:00:10.138Z,26.79
2023-10-30T15:02:40.231Z,27.97
2023-10-30T15:05:11.734Z,27.59
2023-10-30T15:07:41.444Z,25.94
2023-10-30T15:10:10.210Z,24.46
2023-10-30T15:12:38.323Z,22.99
2023-10-30T15:15:28.501Z,24.09
2023-10-30T15:17:57.989Z,24.48
2023-10-30T15:20:26.230Z,24.84
2023-10-30T15:22:54.023Z,26.35
2023-10-30T15:25:23.505Z,27.27
2023-10-30T15:27:51.411Z,24.63
2023-10-30T15:30:20.213Z,25.86
2023-10-30T15:32:47.922Z,26.54
2023-10-30T15:35:17.995Z,26.37
2023-10-30T15:37:46.203Z,26.00
2023-10-30T15:40:14.662Z,26.38
2023-10-30T15:42:42.686Z,26.20
2023-10-30T15:45:11.255Z,25.21
2023-10-30T15:47:39.642Z,26.02
2023-10-30T15:50:10.228Z,26.35
2023-10-30T15:57:41.291Z,25.71
2023-10-30T16:00:09.837Z,26.09
2023-10-30T16:02:38.404Z,25.33
2023-10-30T16:05:06.612Z,24.80
2023-10-30T16:07:37.846Z,25.60
2023-10-30T16:12:40.594Z,24.75
2023-10-30T16:15:10.828Z,26.49
2023-10-30T16:17:39.406Z,26.14
2023-10-30T16:22:43.617Z,26.05
2023-10-30T16:25:15.535Z,26.15
2023-10-30T16:27:43.573Z,26.07
2023-10-30T16:30:12.102Z,25.42
2023-10-30T16:32:40.470Z,25.80
2023-10-30T16:35:08.942Z,25.60
2023-10-30T16:37:36.626Z,26.24
2023-10-30T16:40:05.316Z,25.36
2023-10-30T16:42:35.931Z,26.00
2023-10-30T16:45:25.358Z,25.26
2023-10-30T16:47:53.031Z,24.59
2023-10-30T16:50:21.356Z,25.40
2023-10-30T16:52:49.049Z,24.99
2023-10-30T16:55:17.370Z,25.43
2023-10-30T16:57:46.557Z,25.33
2023-10-30T17:00:15.332Z,25.44
2023-10-30T17:02:43.456Z,23.76
2023-10-30T17:05:11.468Z,24.23
2023-10-30T17:07:39.164Z,23.79
2023-10-30T17:10:10.378Z,25.69
2023-10-30T17:12:38.076Z,24.58
2023-10-30T17:15:09.536Z,24.12
2023-10-30T17:17:37.310Z,24.68
2023-10-30T17:20:06.381Z,25.74
2023-10-30T17:22:34.928Z,25.74
2023-10-30T17:25:03.399Z,25.65
2023-10-30T17:27:31.192Z,25.49
2023-10-30T17:29:58.834Z,23.63
2023-10-30T17:32:28.402Z,25.25
2023-10-30T17:34:56.467Z,23.85
2023-10-30T17:37:26.412Z,22.34
2023-10-30T17:39:54.239Z,24.18
2023-10-30T17:42:23.441Z,23.27
2023-10-30T17:44:51.310Z,22.84
2023-10-30T17:47:19.303Z,22.09
2023-10-30T17:49:49.708Z,24.41
2023-10-30T17:52:17.856Z,24.48
2023-10-30T17:54:46.396Z,24.86
2023-10-30T17:57:14.565Z,23.40
2023-10-30T17:59:44.738Z,23.99
2023-10-30T18:02:13.480Z,24.18
2023-10-30T18:04:41.182Z,24.19
2023-10-30T18:07:11.424Z,24.94
2023-10-30T18:09:39.225Z,24.88
2023-10-30T18:12:08.050Z,24.72
2023-10-30T18:14:38.235Z,24.38
2023-10-30T18:17:06.556Z,23.82
2023-10-30T18:19:34.232Z,23.20
2023-10-30T18:22:02.456Z,23.48
2023-10-30T18:24:32.209Z,24.92
2023-10-30T18:27:00.474Z,24.18
2023-10-30T18:29:29.308Z,23.59
2023-10-30T18:31:57.526Z,24.34
2023-10-30T18:34:25.227Z,23.82
2023-10-30T18:36:53.486Z,24.15
2023-10-30T18:39:21.310Z,25.24
2023-10-30T18:41:50.577Z,24.87
2023-10-30T18:44:19.483Z,23.48
2023-10-30T18:46:47.412Z,23.42
2023-10-30T18:49:37.524Z,24.08
2023-10-30T18:52:05.790Z,25.39
2023-10-30T18:54:34.511Z,24.47
2023-10-30T18:57:03.651Z,24.26
2023-10-30T19:02:13.621Z,24.96
2023-10-30T19:04:41.573Z,24.99
2023-10-30T19:07:10.512Z,24.86
2023-10-30T19:09:38.298Z,25.05
2023-10-30T19:12:08.520Z,25.48
2023-10-30T19:14:36.874Z,25.73
2023-10-30T19:17:05.572Z,24.95
2023-10-30T19:19:36.082Z,25.02
2023-10-30T19:22:04.603Z,25.33
2023-10-30T19:24:32.536Z,25.71
2023-10-30T19:27:00.461Z,25.13
2023-10-30T19:29:29.678Z,24.60
2023-10-30T19:31:57.720Z,25.00
2023-10-30T19:34:26.800Z,25.53
2023-10-30T19:36:54.868Z,25.69
2023-10-30T19:39:22.694Z,24.73
2023-10-30T19:41:50.915Z,25.66
2023-10-30T19:44:18.874Z,25.99
2023-10-30T19:46:48.611Z,25.46
2023-10-30T19:49:16.693Z,26.25
2023-10-30T19:52:06.815Z,25.73
2023-10-30T19:54:35.569Z,24.09
2023-10-30T19:57:03.404Z,25.71
2023-10-30T19:59:31.179Z,24.95
2023-10-30T20:02:01.666Z,24.53
2023-10-30T20:04:29.427Z,24.44
2023-10-30T20:06:57.606Z,25.12
2023-10-30T20:09:37.531Z,26.17
2023-10-30T20:12:10.744Z,24.74
2023-10-30T20:14:38.682Z,25.56
2023-10-30T20:17:10.634Z,26.18
2023-10-30T20:19:38.906Z,24.71
2023-10-30T20:22:07.691Z,26.02
2023-10-30T20:24:36.187Z,26.02
2023-10-30T20:27:04.654Z,26.09
2023-10-30T20:29:51.468Z,26.13
2023-10-30T20:32:20.689Z,26.57
2023-10-30T20:34:48.690Z,25.78
2023-10-30T20:37:16.531Z,24.37
2023-10-30T20:39:44.671Z,25.93
2023-10-30T20:42:13.334Z,26.12
2023-10-30T20:44:41.655Z,24.75
2023-10-30T20:47:09.844Z,26.18
2023-10-30T20:49:41.692Z,25.79
2023-10-30T20:52:09.751Z,25.26
2023-10-30T20:54:37.681Z,25.30
2023-10-30T20:57:06.111Z,26.03
2023-10-30T20:59:33.771Z,26.10
2023-10-30T21:02:02.734Z,25.40
2023-10-30T21:04:30.921Z,24.87
2023-10-30T21:07:00.081Z,24.66
2023-10-30T21:09:28.664Z,23.73
2023-10-30T21:11:56.375Z,24.91
2023-10-30T21:14:24.667Z,25.21
2023-10-30T21:16:53.373Z,23.19
2023-10-30T21:19:21.707Z,24.94
2023-10-30T21:21:49.380Z,23.99
2023-10-30T21:24:28.726Z,25.68
2023-10-30T21:26:56.460Z,24.47
2023-10-30T21:29:24.686Z,23.29
2023-10-30T21:31:52.414Z,24.63
2023-10-30T21:34:22.985Z,22.55
2023-10-30T21:36:52.594Z,24.38
2023-10-30T21:39:20.247Z,24.72
2023-10-30T21:41:49.705Z,24.97
2023-10-30T21:44:17.389Z,24.49
2023-10-30T21:46:45.902Z,25.36
2023-10-30T21:49:15.034Z,25.76
2023-10-30T21:51:43.760Z,24.91
2023-10-30T21:54:11.463Z,24.39
2023-10-30T21:56:39.315Z,25.42
2023-10-30T21:59:09.098Z,25.34
2023-10-30T22:01:36.947Z,25.21
2023-10-30T22:04:05.224Z,23.59
2023-10-30T22:06:33.764Z,25.98
2023-10-30T22:09:01.556Z,26.54
2023-10-30T22:11:30.762Z,22.75
2023-10-30T22:13:59.034Z,23.86
2023-10-30T22:16:28.888Z,24.94
2023-10-30T22:18:56.950Z,25.14
2023-10-30T22:21:24.763Z,24.46
2023-10-30T22:23:52.595Z,24.94
2023-10-30T22:26:20.773Z,24.84
2023-10-30T22:28:48.564Z,22.55
2023-10-30T22:31:16.866Z,25.05
2023-10-30T22:33:46.017Z,23.99
2023-10-30T22:36:16.381Z,24.01
2023-10-30T22:38:44.809Z,22.91
2023-10-30T22:41:12.539Z,23.25
2023-10-30T22:43:40.959Z,24.67
2023-10-30T22:46:08.800Z,22.94
2023-10-30T22:48:36.490Z,24.52
2023-10-30T22:51:06.798Z,24.82
2023-10-30T22:53:34.491Z,24.09
2023-10-30T22:56:03.253Z,23.68
2023-10-30T22:58:31.982Z,24.64
2023-10-30T23:00:59.889Z,24.83
2023-10-30T23:03:28.964Z,24.36
2023-10-30T23:05:56.738Z,25.29
2023-10-30T23:08:27.075Z,24.68
2023-10-30T23:10:54.986Z,23.81
2023-10-30T23:13:22.841Z,21.65
2023-10-30T23:15:50.570Z,24.00
2023-10-30T23:18:18.874Z,24.95
2023-10-30T23:20:46.612Z,23.51
2023-10-30T23:23:14.318Z,22.95
2023-10-30T23:25:44.009Z,24.01
2023-10-30T23:28:11.755Z,23.96
2023-10-30T23:30:39.861Z,23.93
2023-10-30T23:33:07.607Z,20.99
2023-10-30T23:35:35.337Z,23.42
2023-10-30T23:38:08.376Z,23.53
2023-10-30T23:40:41.138Z,23.58
2023-10-30T23:43:10.359Z,23.83
2023-10-30T23:45:39.019Z,23.80
2023-10-30T23:48:07.345Z,23.67
2023-10-30T23:50:35.045Z,22.57
2023-10-30T23:53:04.052Z,22.74
2023-10-30T23:55:31.845Z,23.34
2023-10-30T23:57:59.881Z,23.48
